Time;durP1;ratioP1;P1;durP2;ratioP2;P2;SDS_P1;SDS_P2;PMS_P1;PMS_P2;Temp;Humidity;BMP_temperature;BMP_pressure;BME280_temperature;BME280_humidity;BME280_pressure;Samples;Min_cycle;Max_cycle;Signal;HPM_P1;HPM_P2
2023/02/09 00:01:55;;;;;;;;;;;-5.70;99.90;;;;;;5067376;28;19932;-70
2023/02/09 00:04:25;;;;;;;;;;;-5.70;99.90;;;;;;5070531;28;19931;-70
2023/02/09 00:06:53;;;;;;;;;;;-5.70;99.90;;;;;;5046579;28;20314;-70
2023/02/09 00:09:22;;;;;;;;;;;-5.80;99.90;;;;;;5049171;28;20002;-70
2023/02/09 00:14:40;;;;;;;;;;;-5.80;99.90;;;;;;5062979;28;19924;-70
2023/02/09 00:17:08;;;;;;;;;;;-5.90;99.90;;;;;;5043548;28;19925;-69
2023/02/09 00:19:37;;;;;;;;;;;-5.90;99.90;;;;;;5036678;28;20295;-70
2023/02/09 00:22:08;;;;;;;;;;;-5.90;99.90;;;;;;5064687;28;19952;-70
2023/02/09 00:24:38;;;;;;;;;;;-5.90;99.90;;;;;;5059423;28;19967;-69
2023/02/09 00:27:07;;;;;;;;;;;-6.00;99.90;;;;;;5057206;28;19924;-70
2023/02/09 00:29:38;;;;;;;;;;;-6.00;99.90;;;;;;5051478;28;19931;-68
2023/02/09 00:32:09;;;;;;;;;;;-6.00;99.90;;;;;;5067706;28;19960;-71
2023/02/09 00:34:47;;;;;;;;;;;-6.00;99.90;;;;;;5061894;28;19924;-70
2023/02/09 00:37:22;;;;;;;;;;;-6.00;99.90;;;;;;5064013;28;19924;-70
2023/02/09 00:40:03;;;;;;;;;;;-6.10;99.90;;;;;;5066784;28;20346;-70
2023/02/09 00:42:39;;;;;;;;;;;-6.10;99.90;;;;;;5048396;28;20334;-70
2023/02/09 00:45:07;;;;;;;;;;;-6.10;99.90;;;;;;5041430;28;19925;-70
2023/02/09 00:47:53;;;;;;;;;;;-6.10;99.90;;;;;;5055184;28;20023;-70
2023/02/09 00:50:24;;;;;;;;;;;-6.20;99.90;;;;;;5046597;28;19982;-70
2023/02/09 00:53:13;;;;;;;;;;;-6.20;99.90;;;;;;5056448;28;19928;-70
2023/02/09 00:55:46;;;;;;;;;;;-6.20;99.90;;;;;;5062588;28;19924;-70
2023/02/09 00:58:44;;;;;;;;;;;-6.20;99.90;;;;;;5059499;28;19935;-69
2023/02/09 01:01:13;;;;;;;;;;;-6.30;99.90;;;;;;5025125;28;19999;-71
2023/02/09 01:03:42;;;;;;;;;;;-6.30;99.90;;;;;;5035302;28;19925;-71
2023/02/09 01:06:14;;;;;;;;;;;-6.30;99.90;;;;;;5057301;28;20388;-72
2023/02/09 01:08:43;;;;;;;;;;;-6.30;99.90;;;;;;5053278;28;19932;-70
2023/02/09 01:11:15;;;;;;;;;;;-6.30;99.90;;;;;;5066608;28;19929;-70
2023/02/09 01:13:45;;;;;;;;;;;-6.30;99.90;;;;;;5040809;28;20318;-70
2023/02/09 01:16:16;;;;;;;;;;;-6.40;99.90;;;;;;5038152;28;19929;-72
2023/02/09 01:18:46;;;;;;;;;;;-6.40;99.90;;;;;;5047513;28;20362;-70
2023/02/09 01:21:17;;;;;;;;;;;-6.40;99.90;;;;;;5038228;28;20337;-70
2023/02/09 01:23:51;;;;;;;;;;;-6.50;99.90;;;;;;5061901;28;20330;-70
2023/02/09 01:26:20;;;;;;;;;;;-6.50;99.90;;;;;;5049506;28;19931;-71
2023/02/09 01:28:52;;;;;;;;;;;-6.50;99.90;;;;;;5038149;28;19924;-69
2023/02/09 01:31:26;;;;;;;;;;;-6.50;99.90;;;;;;5068102;28;19986;-70
2023/02/09 01:33:56;;;;;;;;;;;-6.50;99.90;;;;;;5066278;28;19925;-70
2023/02/09 01:36:35;;;;;;;;;;;-6.50;99.90;;;;;;5065910;28;20022;-71
2023/02/09 01:39:21;;;;;;;;;;;-6.50;99.90;;;;;;5053061;28;19925;-70
2023/02/09 01:41:57;;;;;;;;;;;-6.50;99.90;;;;;;5061145;28;20407;-70
2023/02/09 01:44:28;;;;;;;;;;;-6.50;99.90;;;;;;5061328;28;19925;-71
2023/02/09 01:47:03;;;;;;;;;;;-6.50;99.90;;;;;;5065751;28;20557;-70
2023/02/09 01:49:33;;;;;;;;;;;-6.50;99.90;;;;;;5073404;28;19928;-70
2023/02/09 01:52:09;;;;;;;;;;;-6.50;99.90;;;;;;5057160;28;19948;-71
2023/02/09 01:54:42;;;;;;;;;;;-6.50;99.90;;;;;;5072096;28;19924;-70
2023/02/09 01:57:27;;;;;;;;;;;-6.60;99.90;;;;;;5061123;28;19928;-71
2023/02/09 02:00:01;;;;;;;;;;;-6.60;99.90;;;;;;5051812;28;19932;-70
2023/02/09 02:02:41;;;;;;;;;;;-6.60;99.90;;;;;;5048878;28;19932;-71
2023/02/09 02:05:11;;;;;;;;;;;-6.50;99.90;;;;;;5066723;28;19924;-71
2023/02/09 02:07:50;;;;;;;;;;;-6.50;99.90;;;;;;5067605;28;19932;-70
2023/02/09 02:10:23;;;;;;;;;;;-6.50;99.90;;;;;;5041784;28;19928;-70
2023/02/09 02:12:53;;;;;;;;;;;-6.50;99.90;;;;;;5068502;28;19976;-70
2023/02/09 02:15:26;;;;;;;;;;;-6.50;99.90;;;;;;5052654;28;19936;-72
2023/02/09 02:17:57;;;;;;;;;;;-6.50;99.90;;;;;;5046900;28;19931;-70
2023/02/09 02:20:39;;;;;;;;;;;-6.50;99.90;;;;;;5058485;28;19928;-70
2023/02/09 02:23:17;;;;;;;;;;;-6.60;99.90;;;;;;5052170;28;19932;-70
2023/02/09 02:26:04;;;;;;;;;;;-6.60;99.90;;;;;;5039324;28;19932;-70
2023/02/09 02:28:44;;;;;;;;;;;-6.60;99.90;;;;;;5056390;28;19978;-70
2023/02/09 02:31:16;;;;;;;;;;;-6.70;99.90;;;;;;5068877;28;20338;-70
2023/02/09 02:33:55;;;;;;;;;;;-6.70;99.90;;;;;;5070505;28;19924;-71
2023/02/09 02:36:33;;;;;;;;;;;-6.80;99.90;;;;;;5062688;28;20413;-70
2023/02/09 02:39:21;;;;;;;;;;;-6.80;99.90;;;;;;5064342;28;20019;-70
2023/02/09 02:44:40;;;;;;;;;;;-6.80;99.90;;;;;;5067245;28;19924;-71
2023/02/09 02:47:13;;;;;;;;;;;-6.90;99.90;;;;;;5064558;28;19924;-70
2023/02/09 02:49:54;;;;;;;;;;;-6.90;99.90;;;;;;5055809;28;19924;-70
2023/02/09 02:52:26;;;;;;;;;;;-6.80;99.90;;;;;;5054982;28;19973;-72
2023/02/09 02:55:04;;;;;;;;;;;-6.80;99.90;;;;;;5051192;28;19925;-70
2023/02/09 02:57:33;;;;;;;;;;;-6.80;99.90;;;;;;5051007;28;19931;-70
2023/02/09 03:00:11;;;;;;;;;;;-6.80;99.90;;;;;;5040394;28;20011;-71
2023/02/09 03:02:42;;;;;;;;;;;-6.80;99.90;;;;;;5059269;28;19931;-70
2023/02/09 03:05:13;;;;;;;;;;;-6.80;99.90;;;;;;5026609;28;19932;-73
2023/02/09 03:07:43;;;;;;;;;;;-6.80;99.90;;;;;;5069614;28;20637;-70
2023/02/09 03:10:31;;;;;;;;;;;-6.80;99.90;;;;;;5039533;28;19931;-71
2023/02/09 03:13:18;;;;;;;;;;;-6.80;99.90;;;;;;5052679;28;20386;-70
2023/02/09 03:16:00;;;;;;;;;;;-6.80;99.90;;;;;;5041588;28;20350;-71
2023/02/09 03:18:46;;;;;;;;;;;-6.90;99.90;;;;;;5068943;28;20883;-70
2023/02/09 03:21:23;;;;;;;;;;;-6.90;99.90;;;;;;5055176;28;20031;-70
2023/02/09 03:24:05;;;;;;;;;;;-6.90;99.90;;;;;;5060374;28;19928;-70
2023/02/09 03:26:51;;;;;;;;;;;-6.90;99.90;;;;;;5064001;28;19931;-71
2023/02/09 03:29:31;;;;;;;;;;;-7.00;99.90;;;;;;5060050;28;20395;-70
2023/02/09 03:32:14;;;;;;;;;;;-7.00;99.90;;;;;;5052504;28;19925;-70
2023/02/09 03:34:51;;;;;;;;;;;-7.10;99.90;;;;;;5069048;28;20375;-70
2023/02/09 03:37:21;;;;;;;;;;;-7.10;99.90;;;;;;5065807;28;20003;-71
2023/02/09 03:39:51;;;;;;;;;;;-7.10;99.90;;;;;;5038969;28;20019;-70
2023/02/09 03:42:24;;;;;;;;;;;-7.00;99.90;;;;;;5054586;28;19935;-70
2023/02/09 03:44:52;;;;;;;;;;;-7.00;99.90;;;;;;5062441;28;19931;-70
2023/02/09 03:47:26;;;;;;;;;;;-7.00;99.90;;;;;;5065177;28;19974;-70
2023/02/09 03:50:03;;;;;;;;;;;-7.00;99.90;;;;;;5049251;28;20391;-71
2023/02/09 03:52:35;;;;;;;;;;;-7.10;99.90;;;;;;5036513;28;19932;-70
2023/02/09 03:55:07;;;;;;;;;;;-7.10;99.90;;;;;;5052515;28;20012;-71
2023/02/09 03:57:37;;;;;;;;;;;-7.10;99.90;;;;;;5053524;28;19965;-70
2023/02/09 04:00:11;;;;;;;;;;;-7.10;99.90;;;;;;5054495;28;20376;-69
2023/02/09 04:02:55;;;;;;;;;;;-7.10;99.90;;;;;;5058488;28;20391;-70
2023/02/09 04:05:37;;;;;;;;;;;-7.00;99.90;;;;;;5060019;28;19936;-71
2023/02/09 04:08:13;;;;;;;;;;;-7.00;99.90;;;;;;5044471;28;19931;-70
2023/02/09 04:10:56;;;;;;;;;;;-7.00;99.90;;;;;;5066595;28;19964;-70
2023/02/09 04:13:25;;;;;;;;;;;-7.00;99.90;;;;;;5050589;28;20375;-70
2023/02/09 04:15:55;;;;;;;;;;;-7.00;99.90;;;;;;5050885;28;19924;-70
2023/02/09 04:18:25;;;;;;;;;;;-7.00;99.90;;;;;;5067543;28;20298;-70
2023/02/09 04:20:58;;;;;;;;;;;-7.00;99.90;;;;;;5059036;28;19929;-70
2023/02/09 04:23:30;;;;;;;;;;;-7.00;99.90;;;;;;5059392;28;20368;-72
2023/02/09 04:25:59;;;;;;;;;;;-7.00;99.90;;;;;;5055841;28;19929;-70
2023/02/09 04:28:29;;;;;;;;;;;-7.00;99.90;;;;;;5035015;28;19932;-71
2023/02/09 04:31:00;;;;;;;;;;;-7.00;99.90;;;;;;5050861;28;19928;-71
2023/02/09 04:33:30;;;;;;;;;;;-7.00;99.90;;;;;;5061224;28;19964;-70
2023/02/09 04:36:00;;;;;;;;;;;-7.10;99.90;;;;;;5062709;28;19924;-70
2023/02/09 04:38:32;;;;;;;;;;;-7.10;99.90;;;;;;5051278;28;19971;-71
2023/02/09 04:41:01;;;;;;;;;;;-7.20;99.90;;;;;;5041556;28;20008;-69
2023/02/09 04:43:33;;;;;;;;;;;-7.20;99.90;;;;;;5041615;28;19925;-70
2023/02/09 04:46:11;;;;;;;;;;;-7.20;99.90;;;;;;5060736;28;19929;-70
2023/02/09 04:48:41;;;;;;;;;;;-7.20;99.90;;;;;;5064669;28;19951;-71
2023/02/09 04:51:14;;;;;;;;;;;-7.20;99.90;;;;;;5069912;28;19951;-70
2023/02/09 04:54:02;;;;;;;;;;;-7.30;99.90;;;;;;5060830;28;20567;-70
2023/02/09 04:56:45;;;;;;;;;;;-7.30;99.90;;;;;;5059843;28;19928;-72
2023/02/09 04:59:39;;;;;;;;;;;-7.30;99.90;;;;;;5031185;28;20413;-71
2023/02/09 05:02:26;;;;;;;;;;;-7.30;99.90;;;;;;5057566;28;19928;-70
2023/02/09 05:08:12;;;;;;;;;;;-7.40;99.90;;;;;;5034674;28;19972;-72
2023/02/09 05:11:03;;;;;;;;;;;-7.50;99.90;;;;;;5065120;28;20382;-69
2023/02/09 05:13:41;;;;;;;;;;;-7.50;99.90;;;;;;5069271;28;20019;-71
2023/02/09 05:16:34;;;;;;;;;;;-7.50;99.90;;;;;;5069732;28;19935;-72
2023/02/09 05:19:12;;;;;;;;;;;-7.50;99.90;;;;;;5067104;28;20385;-74
2023/02/09 05:22:12;;;;;;;;;;;-7.50;99.90;;;;;;5067950;28;20418;-71
2023/02/09 05:24:51;;;;;;;;;;;-7.50;99.90;;;;;;5068191;28;20299;-70
2023/02/09 05:27:31;;;;;;;;;;;-7.50;99.90;;;;;;5065186;28;20379;-71
2023/02/09 05:30:36;;;;;;;;;;;-7.50;99.90;;;;;;5066604;28;19963;-72
2023/02/09 05:33:14;;;;;;;;;;;-7.50;99.90;;;;;;5062004;28;19986;-71
2023/02/09 05:35:54;;;;;;;;;;;-7.50;99.90;;;;;;5064964;28;19928;-72
2023/02/09 05:38:36;;;;;;;;;;;-7.50;99.90;;;;;;5083060;28;19925;-71
2023/02/09 05:41:10;;;;;;;;;;;-7.40;99.90;;;;;;5051031;28;19928;-72
2023/02/09 05:43:42;;;;;;;;;;;-7.40;99.90;;;;;;5051972;28;19999;-73
2023/02/09 05:46:39;;;;;;;;;;;-7.40;99.90;;;;;;5035653;28;20396;-72
2023/02/09 05:49:09;;;;;;;;;;;-7.40;99.90;;;;;;5071773;28;19974;-72
2023/02/09 05:51:38;;;;;;;;;;;-7.40;99.90;;;;;;5068180;28;20410;-72
2023/02/09 05:54:13;;;;;;;;;;;-7.40;99.90;;;;;;5051398;28;19974;-72
2023/02/09 05:56:47;;;;;;;;;;;-7.40;99.90;;;;;;5061929;28;20031;-71
2023/02/09 05:59:18;;;;;;;;;;;-7.40;99.90;;;;;;5045659;28;19971;-72
2023/02/09 06:01:49;;;;;;;;;;;-7.40;99.90;;;;;;5049956;28;19928;-72
2023/02/09 06:04:30;;;;;;;;;;;-7.40;99.90;;;;;;5049907;28;19941;-72
2023/02/09 06:07:03;;;;;;;;;;;-7.40;99.90;;;;;;5051363;28;20039;-71
2023/02/09 06:09:52;;;;;;;;;;;-7.40;99.90;;;;;;5065040;28;19929;-71
2023/02/09 06:12:28;;;;;;;;;;;-7.40;99.90;;;;;;5065981;28;19930;-72
2023/02/09 06:15:15;;;;;;;;;;;-7.40;99.90;;;;;;5050158;28;19929;-71
2023/02/09 06:17:55;;;;;;;;;;;-7.50;99.90;;;;;;5049828;28;19932;-72
2023/02/09 06:20:36;;;;;;;;;;;-7.50;99.90;;;;;;5064539;28;19939;-72
2023/02/09 06:23:27;;;;;;;;;;;-7.50;99.90;;;;;;5052601;28;19987;-71
2023/02/09 06:26:08;;;;;;;;;;;-7.50;99.90;;;;;;5068877;28;19924;-72
2023/02/09 06:28:51;;;;;;;;;;;-7.50;99.90;;;;;;5052527;28;19930;-72
2023/02/09 06:31:25;;;;;;;;;;;-7.50;99.90;;;;;;5069640;28;19933;-71
2023/02/09 06:34:00;;;;;;;;;;;-7.50;99.90;;;;;;5066705;28;20057;-71
2023/02/09 06:36:29;;;;;;;;;;;-7.50;99.90;;;;;;5050747;28;19928;-72
2023/02/09 06:39:10;;;;;;;;;;;-7.60;99.90;;;;;;5037976;28;19924;-72
2023/02/09 06:42:01;;;;;;;;;;;-7.60;99.90;;;;;;5062605;28;19930;-71
2023/02/09 06:44:35;;;;;;;;;;;-7.40;99.90;;;;;;5069456;28;19942;-72
2023/02/09 06:47:10;;;;;;;;;;;-7.30;99.90;;;;;;5048824;28;19925;-71
2023/02/09 06:49:59;;;;;;;;;;;-7.30;99.90;;;;;;5066605;28;20328;-72
2023/02/09 06:52:38;;;;;;;;;;;-7.30;99.90;;;;;;5067302;28;20356;-72
2023/02/09 06:55:11;;;;;;;;;;;-7.30;99.90;;;;;;5067273;28;19975;-72
2023/02/09 06:57:42;;;;;;;;;;;-7.30;99.90;;;;;;5047281;28;19932;-72
2023/02/09 07:00:22;;;;;;;;;;;-7.30;99.90;;;;;;5066322;28;20021;-71
2023/02/09 07:06:13;;;;;;;;;;;-7.40;99.90;;;;;;5010356;28;19929;-72
2023/02/09 07:09:07;;;;;;;;;;;-7.40;99.90;;;;;;5024757;28;19971;-72
2023/02/09 07:11:57;;;;;;;;;;;-7.40;99.90;;;;;;5007937;28;19929;-72
2023/02/09 07:14:51;;;;;;;;;;;-7.40;99.90;;;;;;5011870;28;19940;-72
2023/02/09 07:17:20;;;;;;;;;;;-7.40;99.90;;;;;;5003567;28;20299;-72
2023/02/09 07:19:51;;;;;;;;;;;-7.40;99.90;;;;;;5010037;28;19925;-72
2023/02/09 07:22:25;;;;;;;;;;;-7.40;99.90;;;;;;5009775;28;20850;-71
2023/02/09 07:25:08;;;;;;;;;;;-7.40;99.90;;;;;;5001928;28;19925;-72
2023/02/09 07:27:55;;;;;;;;;;;-7.30;99.90;;;;;;5013347;28;20085;-72
2023/02/09 07:30:27;;;;;;;;;;;-7.30;99.90;;;;;;5011001;28;20320;-71
2023/02/09 07:32:56;;;;;;;;;;;-7.20;99.90;;;;;;4991984;28;20008;-72
2023/02/09 07:35:27;;;;;;;;;;;-7.20;99.90;;;;;;5027516;28;20459;-71
2023/02/09 07:38:00;;;;;;;;;;;-7.20;99.90;;;;;;5052505;28;20363;-72
2023/02/09 07:40:29;;;;;;;;;;;-7.10;99.90;;;;;;5063081;28;19986;-72
2023/02/09 07:43:26;;;;;;;;;;;-7.10;99.90;;;;;;5060093;28;20343;-72
2023/02/09 07:46:05;;;;;;;;;;;-7.00;99.90;;;;;;5066230;28;19967;-72
2023/02/09 07:49:07;;;;;;;;;;;-6.90;99.90;;;;;;5061929;28;19912;-72
2023/02/09 07:51:49;;;;;;;;;;;-6.90;99.90;;;;;;5058601;28;19932;-72
2023/02/09 07:54:26;;;;;;;;;;;-6.90;99.90;;;;;;5048612;28;19925;-72
2023/02/09 07:57:02;;;;;;;;;;;-6.80;99.90;;;;;;5045179;28;19928;-71
2023/02/09 07:59:38;;;;;;;;;;;-6.80;99.90;;;;;;5062484;28;19990;-72
2023/02/09 08:02:48;;;;;;;;;;;-6.80;99.90;;;;;;5063344;28;20048;-71
2023/02/09 08:05:24;;;;;;;;;;;-6.70;99.90;;;;;;5060774;28;19929;-72
2023/02/09 08:07:55;;;;;;;;;;;-6.60;99.90;;;;;;5069867;28;19978;-72
2023/02/09 08:10:27;;;;;;;;;;;-6.60;99.90;;;;;;5066184;28;20384;-72
2023/02/09 08:13:02;;;;;;;;;;;-6.50;99.90;;;;;;5067073;28;19971;-72
2023/02/09 08:16:03;;;;;;;;;;;-6.40;99.90;;;;;;5037504;28;19938;-72
2023/02/09 08:18:42;;;;;;;;;;;-6.30;99.90;;;;;;5079906;28;19948;-72
2023/02/09 08:21:43;;;;;;;;;;;-6.20;99.90;;;;;;5058601;28;20470;-72
2023/02/09 08:24:46;;;;;;;;;;;-6.10;99.90;;;;;;5057114;28;20066;-72
2023/02/09 08:27:42;;;;;;;;;;;-6.00;99.90;;;;;;5071235;28;19925;-72
2023/02/09 08:30:49;;;;;;;;;;;-5.90;99.90;;;;;;5058304;28;19931;-72
2023/02/09 08:33:44;;;;;;;;;;;-5.80;99.90;;;;;;5058294;28;19925;-72
2023/02/09 08:36:41;;;;;;;;;;;-5.70;99.90;;;;;;5060602;28;20015;-71
2023/02/09 08:39:31;;;;;;;;;;;-5.60;99.90;;;;;;5063279;28;19958;-72
2023/02/09 08:42:34;;;;;;;;;;;-5.50;99.90;;;;;;5053023;28;19932;-71
2023/02/09 08:45:39;;;;;;;;;;;-5.40;99.90;;;;;;5058167;28;19920;-72
2023/02/09 08:48:52;;;;;;;;;;;-5.30;99.90;;;;;;5020123;28;19928;-71
2023/02/09 08:51:50;;;;;;;;;;;-5.20;99.90;;;;;;5020263;28;20291;-72
2023/02/09 08:57:31;;;;;;;;;;;-5.00;99.90;;;;;;5022575;28;19983;-72
2023/02/09 09:01:02;;;;;;;;;;;-4.90;99.90;;;;;;5021038;28;19936;-72
2023/02/09 09:04:13;;;;;;;;;;;-4.80;99.90;;;;;;5015056;28;19948;-71
2023/02/09 09:06:59;;;;;;;;;;;-4.60;99.90;;;;;;5008078;28;20016;-71
2023/02/09 09:09:36;;;;;;;;;;;-4.50;99.90;;;;;;5009566;28;20030;-72
2023/02/09 09:12:09;;;;;;;;;;;-4.40;99.90;;;;;;4973342;28;19971;-72
2023/02/09 09:14:40;;;;;;;;;;;-4.30;99.90;;;;;;5009588;28;19925;-72
2023/02/09 09:17:14;;;;;;;;;;;-4.10;99.90;;;;;;5003975;28;19925;-72
2023/02/09 09:19:54;;;;;;;;;;;-4.00;99.90;;;;;;4994529;28;19948;-71
2023/02/09 09:22:25;;;;;;;;;;;-3.90;99.90;;;;;;4987582;28;19936;-71
2023/02/09 09:25:15;;;;;;;;;;;-3.80;99.90;;;;;;5011431;28;19935;-71
2023/02/09 09:28:22;;;;;;;;;;;-3.70;99.90;;;;;;5058503;28;19931;-72
2023/02/09 09:31:07;;;;;;;;;;;-3.60;99.90;;;;;;5066823;28;19925;-72
2023/02/09 09:34:25;;;;;;;;;;;-3.50;99.90;;;;;;5004195;28;20643;-72
2023/02/09 09:37:16;;;;;;;;;;;-3.40;99.90;;;;;;4993192;28;19933;-71
2023/02/09 09:39:48;;;;;;;;;;;-3.40;99.90;;;;;;4992379;28;19941;-71
2023/02/09 09:42:23;;;;;;;;;;;-3.20;99.90;;;;;;4996308;28;19992;-71
2023/02/09 09:45:06;;;;;;;;;;;-3.10;99.90;;;;;;4991819;28;19969;-72
2023/02/09 09:47:39;;;;;;;;;;;-3.10;99.90;;;;;;4982859;28;19929;-72
2023/02/09 09:50:21;;;;;;;;;;;-3.10;99.90;;;;;;4995872;28;19925;-72
2023/02/09 09:53:01;;;;;;;;;;;-3.00;99.90;;;;;;5008696;28;20385;-72
2023/02/09 09:55:55;;;;;;;;;;;-3.00;99.90;;;;;;4993057;28;19924;-71
2023/02/09 09:58:54;;;;;;;;;;;-2.90;99.90;;;;;;4994231;28;20015;-71
2023/02/09 10:02:22;;;;;;;;;;;-2.80;99.90;;;;;;5012130;28;20012;-71
2023/02/09 10:05:17;;;;;;;;;;;-2.80;99.90;;;;;;5031614;28;20046;-71
2023/02/09 10:08:16;;;;;;;;;;;-2.70;99.90;;;;;;5047407;28;20015;-71
2023/02/09 10:11:08;;;;;;;;;;;-2.60;99.90;;;;;;5049264;28;19947;-71
2023/02/09 10:13:44;;;;;;;;;;;-2.50;99.90;;;;;;5050742;28;19925;-71
2023/02/09 10:16:23;;;;;;;;;;;-2.50;99.90;;;;;;5066571;28;20387;-71
2023/02/09 10:18:58;;;;;;;;;;;-2.40;99.90;;;;;;5065279;28;19954;-71
2023/02/09 10:21:30;;;;;;;;;;;-2.30;99.90;;;;;;5049779;28;20305;-71
2023/02/09 10:24:15;;;;;;;;;;;-2.30;99.90;;;;;;5060131;28;19931;-71
2023/02/09 10:26:59;;;;;;;;;;;-2.20;99.90;;;;;;5048407;28;20019;-72
2023/02/09 10:29:55;;;;;;;;;;;-2.10;99.90;;;;;;5062397;28;19978;-72
2023/02/09 10:32:40;;;;;;;;;;;-2.00;99.90;;;;;;5051377;28;20414;-71
2023/02/09 10:35:42;;;;;;;;;;;-2.00;99.90;;;;;;5040924;28;20306;-72
2023/02/09 10:38:21;;;;;;;;;;;-1.90;99.90;;;;;;5030578;28;19925;-71
2023/02/09 10:40:57;;;;;;;;;;;-1.80;99.90;;;;;;5069667;28;19947;-72
2023/02/09 10:43:52;;;;;;;;;;;-1.70;99.90;;;;;;5059757;28;20298;-72
2023/02/09 10:46:49;;;;;;;;;;;-1.60;99.90;;;;;;5042724;28;19929;-72
2023/02/09 10:49:44;;;;;;;;;;;-1.50;99.90;;;;;;5050353;28;19932;-72
2023/02/09 10:52:22;;;;;;;;;;;-1.40;99.90;;;;;;5056517;28;20019;-72
2023/02/09 10:55:23;;;;;;;;;;;-1.30;99.90;;;;;;5058663;28;20294;-72
2023/02/09 10:58:19;;;;;;;;;;;-1.30;99.90;;;;;;5065984;28;19975;-71
2023/02/09 11:01:05;;;;;;;;;;;-1.20;99.90;;;;;;5063184;28;19932;-72
2023/02/09 11:03:45;;;;;;;;;;;-1.20;99.90;;;;;;5053300;28;20002;-72
2023/02/09 11:06:18;;;;;;;;;;;-1.10;99.90;;;;;;5058018;28;20020;-72
2023/02/09 11:09:00;;;;;;;;;;;-1.00;99.90;;;;;;5059679;28;19933;-73
2023/02/09 11:11:36;;;;;;;;;;;-0.90;99.90;;;;;;5066659;28;19931;-72
2023/02/09 11:14:12;;;;;;;;;;;-0.80;99.90;;;;;;5060839;28;20661;-72
2023/02/09 11:16:57;;;;;;;;;;;-0.70;99.90;;;;;;5048296;28;20295;-72
2023/02/09 11:19:38;;;;;;;;;;;-0.70;99.90;;;;;;5065708;28;19925;-72
2023/02/09 11:22:15;;;;;;;;;;;-0.60;99.90;;;;;;5063607;28;19963;-72
2023/02/09 11:24:50;;;;;;;;;;;-0.60;99.90;;;;;;5063633;28;19931;-72
2023/02/09 11:27:29;;;;;;;;;;;-0.60;99.90;;;;;;5058611;28;19986;-72
2023/02/09 11:30:03;;;;;;;;;;;-0.40;99.90;;;;;;5059474;28;20346;-72
2023/02/09 11:32:39;;;;;;;;;;;-0.40;99.90;;;;;;5068658;28;19946;-72
2023/02/09 11:35:08;;;;;;;;;;;-0.20;99.90;;;;;;5041733;28;20426;-72
2023/02/09 11:37:51;;;;;;;;;;;-0.10;99.90;;;;;;5062031;28;20012;-72
2023/02/09 11:40:33;;;;;;;;;;;-0.10;99.90;;;;;;5051488;28;20392;-72
2023/02/09 11:43:10;;;;;;;;;;;0.00;99.90;;;;;;5058216;28;20011;-72
2023/02/09 11:45:48;;;;;;;;;;;0.10;99.90;;;;;;5046305;28;19952;-72
2023/02/09 11:48:35;;;;;;;;;;;0.20;99.90;;;;;;5064487;28;20531;-72
2023/02/09 11:51:15;;;;;;;;;;;0.30;99.90;;;;;;5057508;28;19971;-72
2023/02/09 11:54:17;;;;;;;;;;;0.40;99.90;;;;;;5062259;28;19968;-72
2023/02/09 11:56:50;;;;;;;;;;;0.60;99.90;;;;;;5063312;28;19936;-72
2023/02/09 11:59:31;;;;;;;;;;;0.70;99.90;;;;;;5054140;28;19929;-72
2023/02/09 12:02:18;;;;;;;;;;;0.70;99.90;;;;;;5063948;28;19928;-72
2023/02/09 12:05:03;;;;;;;;;;;0.80;99.90;;;;;;5065053;28;19924;-71
2023/02/09 12:08:22;;;;;;;;;;;0.90;99.90;;;;;;5064619;28;19922;-72
2023/02/09 12:11:18;;;;;;;;;;;1.00;99.90;;;;;;5064571;28;20009;-72
2023/02/09 12:14:24;;;;;;;;;;;1.10;99.90;;;;;;5062741;28;20013;-71
2023/02/09 12:17:04;;;;;;;;;;;1.30;99.90;;;;;;5062791;28;19924;-72
2023/02/09 12:19:59;;;;;;;;;;;1.40;99.90;;;;;;5063568;28;19920;-72
2023/02/09 12:22:48;;;;;;;;;;;1.50;99.90;;;;;;5065273;28;20363;-72
2023/02/09 12:25:34;;;;;;;;;;;1.60;99.90;;;;;;5013087;28;20374;-72
2023/02/09 12:28:38;;;;;;;;;;;1.70;99.90;;;;;;5054692;28;19925;-72
2023/02/09 12:31:26;;;;;;;;;;;1.70;99.90;;;;;;5046510;28;20367;-72
2023/02/09 12:34:09;;;;;;;;;;;1.80;99.90;;;;;;5045412;28;19933;-73
2023/02/09 12:36:58;;;;;;;;;;;1.90;99.90;;;;;;5049750;28;19974;-72
2023/02/09 12:39:35;;;;;;;;;;;2.00;99.90;;;;;;5056317;28;19929;-72
2023/02/09 12:42:14;;;;;;;;;;;2.10;99.90;;;;;;5050529;28;19935;-73
2023/02/09 12:44:58;;;;;;;;;;;2.20;99.90;;;;;;5064781;28;19924;-72
2023/02/09 12:47:44;;;;;;;;;;;2.30;99.90;;;;;;5039755;28;20024;-71
2023/02/09 12:50:44;;;;;;;;;;;2.40;99.90;;;;;;5051532;28;20276;-72
2023/02/09 12:53:23;;;;;;;;;;;2.50;99.90;;;;;;5063273;28;19985;-72
2023/02/09 12:56:11;;;;;;;;;;;2.50;99.90;;;;;;5061410;28;19939;-72
2023/02/09 12:59:14;;;;;;;;;;;2.50;99.90;;;;;;5061906;28;20488;-72
2023/02/09 13:02:06;;;;;;;;;;;2.60;99.90;;;;;;5063370;28;20026;-72
2023/02/09 13:05:27;;;;;;;;;;;2.70;99.90;;;;;;5065613;28;19962;-72
2023/02/09 13:08:05;;;;;;;;;;;2.70;99.90;;;;;;5054372;28;19924;-72
2023/02/09 13:10:52;;;;;;;;;;;2.80;99.90;;;;;;5074045;28;20387;-72
2023/02/09 13:13:28;;;;;;;;;;;2.80;99.90;;;;;;5063827;28;20299;-72
2023/02/09 13:16:02;;;;;;;;;;;2.90;99.90;;;;;;5063289;28;19982;-72
2023/02/09 13:19:00;;;;;;;;;;;3.00;99.90;;;;;;5067294;28;20302;-72
2023/02/09 13:21:55;;;;;;;;;;;3.10;99.90;;;;;;5054599;28;20039;-74
2023/02/09 13:24:48;;;;;;;;;;;3.20;99.90;;;;;;5072967;28;20671;-73
2023/02/09 13:28:07;;;;;;;;;;;3.20;99.90;;;;;;5064829;28;19932;-73
2023/02/09 13:31:41;;;;;;;;;;;3.30;99.90;;;;;;5069480;28;19931;-73
2023/02/09 13:34:47;;;;;;;;;;;3.30;99.90;;;;;;5065324;28;20405;-72
2023/02/09 13:37:37;;;;;;;;;;;3.20;99.90;;;;;;5050528;28;20621;-72
2023/02/09 13:40:23;;;;;;;;;;;3.30;99.90;;;;;;5068877;28;19932;-73
2023/02/09 13:42:57;;;;;;;;;;;3.30;99.90;;;;;;5068656;28;19924;-73
2023/02/09 13:45:47;;;;;;;;;;;3.40;99.90;;;;;;5063714;28;20379;-71
2023/02/09 13:48:25;;;;;;;;;;;3.50;99.90;;;;;;5048779;28;20043;-72
2023/02/09 13:51:02;;;;;;;;;;;3.50;99.90;;;;;;5069262;28;19974;-73
2023/02/09 13:53:54;;;;;;;;;;;3.50;99.90;;;;;;5063843;28;19932;-74
2023/02/09 13:56:24;;;;;;;;;;;3.50;99.90;;;;;;5061554;28;20027;-73
2023/02/09 13:58:58;;;;;;;;;;;3.60;99.90;;;;;;5062748;28;19928;-73
2023/02/09 14:01:46;;;;;;;;;;;3.60;99.90;;;;;;5052792;28;20016;-73
2023/02/09 14:04:24;;;;;;;;;;;3.60;99.90;;;;;;5067609;28;20288;-73
2023/02/09 14:07:32;;;;;;;;;;;3.60;99.90;;;;;;5064380;28;19981;-71
2023/02/09 14:22:56;;;;;;;;;;;3.90;99.90;;;;;;3498231;23;19956;-73
2023/02/09 14:25:24;;;;;;;;;;;3.90;99.90;;;;;;4920478;29;19974;-72
2023/02/09 14:27:56;;;;;;;;;;;3.80;99.90;;;;;;4916853;29;19931;-72
2023/02/09 14:30:25;;;;;;;;;;;3.70;99.90;;;;;;4921662;29;19927;-72
2023/02/09 14:32:57;;;;;;;;;;;3.60;99.90;;;;;;4917541;29;19927;-72
2023/02/09 14:35:30;;;;;;;;;;;3.60;99.90;;;;;;4892491;29;19998;-72
2023/02/09 14:38:02;;;;;;;;;;;3.50;99.90;;;;;;4903457;29;19935;-72
2023/02/09 14:40:36;;;;;;;;;;;3.60;99.90;;;;;;4897726;29;19931;-72
2023/02/09 14:43:07;;;;;;;;;;;3.60;99.90;;;;;;4917559;29;20862;-72
2023/02/09 14:45:42;;;;;;;;;;;3.60;99.90;;;;;;4903759;29;20291;-72
2023/02/09 14:48:18;;;;;;;;;;;3.60;99.90;;;;;;4921409;29;19930;-72
2023/02/09 14:50:52;;;;;;;;;;;3.60;99.90;;;;;;4903709;29;20029;-72
2023/02/09 14:53:22;;;;;;;;;;;3.60;99.90;;;;;;4890607;29;19934;-72
2023/02/09 14:55:50;;;;;;;;;;;3.60;99.90;;;;;;4917135;29;20404;-72
2023/02/09 14:58:20;;;;;;;;;;;3.60;99.90;;;;;;4884816;29;20282;-72
2023/02/09 15:00:49;;;;;;;;;;;3.60;99.90;;;;;;4897253;29;19935;-72
2023/02/09 15:03:19;;;;;;;;;;;3.60;99.90;;;;;;4899363;29;19935;-72
2023/02/09 15:05:48;;;;;;;;;;;3.60;99.90;;;;;;4913701;29;19931;-72
2023/02/09 15:08:22;;;;;;;;;;;3.60;99.90;;;;;;4915737;29;20365;-72
2023/02/09 15:10:55;;;;;;;;;;;3.60;99.90;;;;;;4901428;29;20014;-72
2023/02/09 15:13:26;;;;;;;;;;;3.70;99.90;;;;;;4912853;29;20017;-72
2023/02/09 15:15:55;;;;;;;;;;;3.70;99.90;;;;;;4909989;29;19934;-72
2023/02/09 15:18:24;;;;;;;;;;;3.70;99.90;;;;;;4893104;29;19955;-72
2023/02/09 15:20:54;;;;;;;;;;;3.80;99.90;;;;;;4908542;29;20009;-72
2023/02/09 15:23:23;;;;;;;;;;;3.80;99.90;;;;;;4895594;29;20370;-72
2023/02/09 15:25:52;;;;;;;;;;;3.80;99.90;;;;;;4899289;29;19970;-72
2023/02/09 15:28:33;;;;;;;;;;;3.90;99.90;;;;;;4891868;29;19971;-72
2023/02/09 15:31:01;;;;;;;;;;;3.80;99.90;;;;;;4912998;29;19927;-72
2023/02/09 15:33:30;;;;;;;;;;;3.90;99.90;;;;;;4889180;29;19931;-72
2023/02/09 15:35:59;;;;;;;;;;;3.80;99.90;;;;;;4890696;29;20314;-72
2023/02/09 15:38:29;;;;;;;;;;;3.40;99.90;;;;;;4915606;29;19966;-72
2023/02/09 15:49:20;;;;;;;;;;;2.50;99.90;;;;;;4911316;29;19935;-72
2023/02/09 15:51:49;;;;;;;;;;;2.30;99.90;;;;;;4902504;29;19931;-72
2023/02/09 15:54:20;;;;;;;;;;;2.00;99.90;;;;;;4900951;29;20018;-72
2023/02/09 15:56:48;;;;;;;;;;;1.80;99.90;;;;;;4885432;29;19927;-72
2023/02/09 15:59:19;;;;;;;;;;;1.70;99.90;;;;;;4922176;29;19955;-72
2023/02/09 16:01:48;;;;;;;;;;;1.60;99.90;;;;;;4914385;29;20382;-72
2023/02/09 16:04:17;;;;;;;;;;;1.40;99.90;;;;;;4893173;29;19927;-72
2023/02/09 16:06:51;;;;;;;;;;;1.30;99.90;;;;;;4900691;29;19927;-72
2023/02/09 16:09:27;;;;;;;;;;;1.10;99.90;;;;;;4897926;29;20009;-72
2023/02/09 16:11:57;;;;;;;;;;;1.00;99.90;;;;;;4914576;29;20401;-72
2023/02/09 16:14:27;;;;;;;;;;;0.90;99.90;;;;;;4893453;29;19931;-72